Latest Weather Observations for Cocos Island

IDW60801

Issued at 12:04 pm WST Wednesday 24 May 2017 (issued every 30 minutes, with the page automatically refreshed every 10 minutes)

About weather observations | Map of weather stations | Latest weather observations for WA | Other Formats
Station Details ID: 200284 Name: COCOS ISLAND AIRPORT Lat: -12.19 Lon: 96.83 Height: 3.0 m
Data from the previous 72 hours. | See also: Recent months at Cocos Island
Date/Time
WST
Temp
°C
App
Temp
°C
Dew
Point
°C
Rel
Hum
%
Delta-T
°C
Wind Press
QNH
hPa
Press
MSL
hPa
Rain since
9am
mm
Dir  Spd
km/h
Gust
km/h
Spd
kts
Gust
kts
24/11:30am 28.5 29.1 23.4 74 3.5 ESE 26 35 14 19 1012.9 - 0.0
24/11:00am 28.7 30.1 23.5 73 3.6 ESE 22 33 12 18 1013.0 1012.9 0.0
24/10:30am 28.3 29.5 23.2 74 3.5 ESE 22 33 12 18 1013.1 - 0.0
24/10:00am 28.0 28.4 22.4 71 3.8 ESE 24 33 13 18 1012.9 - 0.0
24/09:30am 27.5 28.5 22.8 75 3.2 ESE 22 32 12 17 1012.3 - 0.0
24/09:00am 27.3 27.5 22.7 76 3.1 ESE 26 35 14 19 1012.0 - 0.0
24/08:30am 26.9 26.8 22.9 79 2.7 ESE 28 35 15 19 1011.6 - 0.0
24/08:00am 26.8 26.4 22.3 76 3.0 ESE 28 35 15 19 1011.3 1011.2 0.0
24/07:30am 26.8 26.5 22.5 77 2.9 ESE 28 35 15 19 1011.2 - 0.0
24/07:00am 26.9 26.6 22.5 77 3.0 ESE 28 35 15 19 1010.8 - 0.0
24/06:30am 26.8 26.6 22.8 79 2.7 ESE 28 35 15 19 1010.5 - 0.0
24/06:00am 26.7 26.8 23.2 81 2.4 SE 28 33 15 18 1010.4 - 0.0
24/05:30am 26.8 26.2 22.7 78 2.8 ESE 30 39 16 21 1010.4 - 0.0
24/05:00am 26.8 27.0 22.7 78 2.8 ESE 26 35 14 19 1010.6 1010.5 0.0
24/04:30am 26.7 26.4 22.6 78 2.8 ESE 28 37 15 20 1010.5 - 0.0
24/04:00am 26.7 26.4 22.6 78 2.8 SE 28 37 15 20 1010.8 - 0.0
24/03:30am 26.6 26.3 22.6 78 2.7 SE 28 35 15 19 1011.0 - 0.0
24/03:00am 26.6 25.8 22.4 78 2.8 SE 30 39 16 21 1011.3 - 0.0
24/02:36am 26.7 25.9 22.4 77 2.9 SE 30 35 16 19 1011.5 - 0.0
24/02:30am 26.7 26.3 22.4 77 2.9 SE 28 35 15 19 1011.7 - 0.0
24/02:17am 26.7 26.4 22.6 78 2.8 SE 28 35 15 19 1011.8 - 0.0
24/02:00am 26.6 26.4 22.8 79 2.6 SE 28 33 15 18 1011.9 1011.8 0.0
24/01:30am 26.6 25.8 22.3 77 2.9 SE 30 37 16 20 1012.1 - 0.0
24/01:00am 26.7 26.4 22.6 78 2.8 SE 28 33 15 18 1012.4 - 0.0
24/12:30am 26.7 26.3 22.4 77 2.9 SE 28 35 15 19 1012.6 - 0.0
24/12:00am 26.8 26.2 22.0 75 3.2 ESE 28 33 15 18 1012.6 - 0.0
 
Date/Time
WST
Temp
°C
App
Temp
°C
Dew
Point
°C
Rel
Hum
%
Delta-T
°C
Wind Press
QNH
hPa
Press
MSL
hPa
Rain since
9am
mm
Dir  Spd
km/h
Gust
km/h
Spd
kts
Gust
kts
23/11:30pm 26.7 26.7 22.4 77 2.9 SE 26 35 14 19 1012.9 - 0.0
23/11:00pm 26.7 25.8 22.2 76 3.0 SE 30 35 16 19 1013.0 1012.9 0.0
23/10:30pm 26.9 25.6 22.1 75 3.2 SE 32 41 17 22 1012.8 - 0.0
23/10:00pm 26.4 27.2 23.2 82 2.2 SE 24 35 13 19 1012.7 - 0.0
23/09:30pm 26.7 26.8 22.6 78 2.8 SE 26 35 14 19 1012.4 - 0.0
23/09:00pm 27.1 26.6 22.2 74 3.3 SE 28 35 15 19 1012.1 - 0.0
23/08:30pm 27.2 26.3 22.1 73 3.4 SE 30 37 16 20 1011.6 - 0.0
23/08:00pm 27.3 27.5 22.7 76 3.1 SE 26 33 14 18 1011.0 1010.9 0.0
23/07:30pm 27.3 26.5 22.3 74 3.4 SE 30 39 16 21 1010.8 - 0.0
23/07:00pm 27.4 27.2 22.8 76 3.1 SE 28 37 15 20 1010.6 - 0.0
23/06:32pm 27.5 26.7 22.3 73 3.5 SE 30 41 16 22 1010.4 - 0.0
23/06:30pm 27.6 27.0 22.7 74 3.3 SE 30 39 16 21 1010.4 - 0.0
23/06:13pm 27.7 26.5 22.2 72 3.7 SE 32 41 17 22 1010.1 - 0.0
23/06:00pm 27.9 26.8 22.4 72 3.7 SE 32 43 17 23 1010.0 - 0.0
23/05:30pm 27.9 26.9 22.7 73 3.5 SE 32 39 17 21 1010.1 - 0.0
23/05:00pm 27.9 26.7 22.3 71 3.8 SE 32 39 17 21 1009.9 1009.8 0.0
23/04:30pm 28.1 26.9 22.7 72 3.7 SE 33 43 18 23 1009.8 - 0.0
23/04:00pm 28.2 27.2 22.6 71 3.8 ESE 32 41 17 22 1009.9 - 0.0
23/03:30pm 28.5 27.3 22.6 70 4.0 SE 33 41 18 22 1010.2 - 0.0
23/03:00pm 28.3 26.2 21.7 67 4.4 SE 35 41 19 22 1010.4 - 0.0
23/02:30pm 28.4 27.6 23.0 72 3.7 ESE 32 39 17 21 1011.0 - 0.0
23/02:00pm 28.5 27.2 22.1 68 4.3 ESE 32 41 17 22 1011.6 1011.5 0.0
23/01:30pm 28.7 27.9 23.3 72 3.7 SE 33 43 18 23 1012.1 - 0.0
23/01:00pm 28.3 26.3 22.5 71 3.9 SE 37 46 20 25 1012.6 - 0.0
23/12:30pm 28.5 27.0 22.8 71 3.9 SE 35 43 19 23 1012.8 - 0.0
23/12:00pm 28.2 26.4 22.3 70 4.0 SE 35 43 19 23 1013.2 - 0.0
23/11:30am 27.9 26.3 22.6 73 3.6 SE 35 44 19 24 1013.6 - 0.0
23/11:00am 27.4 26.0 22.2 73 3.5 SE 33 43 18 23 1013.8 1013.7 0.0
23/10:30am 27.6 26.1 22.1 72 3.7 SE 33 43 18 23 1013.7 - 0.0
23/10:00am 27.2 25.9 22.1 73 3.4 ESE 32 39 17 21 1013.4 - 0.0
23/09:30am 27.0 25.2 21.6 72 3.6 SE 33 44 18 24 1013.0 - 0.0
23/09:00am 26.8 25.2 21.9 74 3.3 SE 33 43 18 23 1012.6 - 0.0
23/08:30am 26.8 24.6 21.5 72 3.5 SE 35 43 19 23 1012.3 - 0.0
23/08:00am 26.3 24.8 22.1 77 2.8 SE 33 43 18 23 1011.9 1011.8 0.0
23/07:30am 26.5 25.0 21.7 75 3.2 SE 32 43 17 23 1011.8 - 0.0
23/07:00am 26.5 25.0 21.7 75 3.2 SE 32 39 17 21 1011.6 - 0.0
23/06:30am 26.5 24.9 21.9 76 3.1 SE 33 41 18 22 1011.4 - 0.0
23/06:00am 26.4 24.8 21.6 75 3.2 SE 32 41 17 22 1011.3 - 0.0
23/05:30am 26.5 24.9 21.9 76 3.1 SE 33 41 18 22 1011.2 - 0.0
23/05:00am 26.4 24.8 21.8 76 3.1 SE 33 43 18 23 1011.2 1011.1 0.0
23/04:30am 26.6 25.1 21.7 74 3.3 ESE 32 41 17 22 1011.4 - 0.0
23/04:00am 26.5 25.0 21.7 75 3.2 ESE 32 43 17 23 1011.7 - 0.0
23/03:30am 26.6 25.1 22.0 76 3.1 ESE 33 43 18 23 1011.9 - 0.0
23/03:00am 26.5 25.1 22.3 78 2.8 SE 33 43 18 23 1012.1 - 0.0
23/02:30am 26.6 25.3 22.1 76 3.0 SE 32 39 17 21 1012.4 - 0.0
23/02:04am 26.6 25.1 22.1 76 3.0 SE 33 41 18 22 1012.7 - 0.0
23/02:00am 26.6 25.6 22.6 78 2.7 SE 32 41 17 22 1012.7 1012.6 0.0
23/01:43am 26.7 25.6 22.4 77 2.9 ESE 32 41 17 22 1012.8 - 0.0
23/01:30am 26.6 24.7 22.1 76 3.0 ESE 35 43 19 23 1012.8 - 0.0
23/01:00am 26.8 25.6 22.2 76 3.1 ESE 32 41 17 22 1013.1 - 0.0
23/12:30am 26.7 25.8 22.1 76 3.1 ESE 30 41 16 22 1013.2 - 0.0
23/12:00am 26.7 25.5 22.2 76 3.0 ESE 32 39 17 21 1013.3 - 0.0
 
Date/Time
WST
Temp
°C
App
Temp
°C
Dew
Point
°C
Rel
Hum
%
Delta-T
°C
Wind Press
QNH
hPa
Press
MSL
hPa
Rain since
9am
mm
Dir  Spd
km/h
Gust
km/h
Spd
kts
Gust
kts
22/11:30pm 26.7 25.9 22.4 77 2.9 ESE 30 41 16 22 1013.4 - 0.0
22/11:00pm 26.8 25.9 22.2 76 3.1 ESE 30 37 16 20 1013.6 1013.5 0.0
22/10:30pm 26.9 25.0 22.1 75 3.2 SE 35 44 19 24 1013.6 - 0.0
22/10:00pm 26.8 25.6 22.3 76 3.0 ESE 32 43 17 23 1013.3 - 0.0
22/09:30pm 27.0 25.0 21.9 73 3.4 SE 35 44 19 24 1013.1 - 0.0
22/09:00pm 27.2 25.6 21.5 71 3.8 ESE 32 41 17 22 1012.8 - 0.0
22/08:30pm 27.1 26.5 22.0 73 3.4 ESE 28 41 15 22 1012.4 - 0.0
22/08:00pm 27.2 26.4 21.7 72 3.7 ESE 28 37 15 20 1012.1 1012.0 0.0
22/07:30pm 27.2 27.0 22.8 77 3.0 ESE 28 39 15 21 1011.8 - 0.0
22/07:00pm 27.3 26.1 22.6 75 3.2 SE 33 41 18 22 1011.4 - 0.0
22/06:30pm 27.3 26.1 22.3 74 3.4 SE 32 39 17 21 1011.1 - 0.0
22/06:00pm 27.6 27.0 22.6 74 3.4 ESE 30 39 16 21 1010.7 - 0.0
22/05:48pm 27.7 26.6 22.4 73 3.6 ESE 32 39 17 21 1010.6 - 0.0
22/05:30pm 27.5 26.9 22.6 74 3.3 SE 30 41 16 22 1010.4 - 0.0
22/05:29pm 27.6 27.0 22.7 74 3.3 SE 30 39 16 21 1010.4 - 0.0
22/05:00pm 27.6 26.3 22.4 73 3.5 ESE 33 43 18 23 1010.2 1010.1 0.0
22/04:30pm 27.7 26.3 22.2 72 3.7 ESE 33 41 18 22 1010.3 - 0.0
22/04:00pm 28.1 27.3 23.0 74 3.5 ESE 32 41 17 22 1010.5 - 0.0
22/03:30pm 27.8 26.9 22.8 74 3.4 ESE 32 39 17 21 1010.6 - 0.0
22/03:00pm 28.0 27.5 22.9 74 3.5 ESE 30 39 16 21 1011.0 - 0.0
22/02:30pm 28.1 27.0 22.5 71 3.8 ESE 32 41 17 22 1011.3 - 0.0
22/02:00pm 28.2 27.4 22.4 71 3.9 ESE 30 43 16 23 1011.9 1011.8 0.0
22/01:30pm 28.8 28.8 23.1 71 3.9 ESE 28 39 15 21 1012.2 - 0.0
22/01:00pm 28.4 27.7 22.5 70 4.0 ESE 30 41 16 22 1012.4 - 0.0
22/12:30pm 28.8 28.9 22.5 68 4.3 ESE 26 43 14 23 1012.4 - 0.0
22/12:00pm 28.2 26.8 22.3 70 4.0 ESE 33 43 18 23 1012.6 - 0.0
22/11:30am 28.1 26.9 22.2 70 4.0 ESE 32 41 17 22 1013.0 - 0.0
22/11:00am 28.0 27.1 22.2 70 3.9 ESE 30 41 16 22 1013.0 1012.9 0.0
22/10:30am 27.6 27.2 22.4 73 3.5 ESE 28 39 15 21 1013.0 - 0.0
22/10:00am 27.3 26.2 21.8 72 3.7 ESE 30 35 16 19 1012.8 - 0.0
22/09:30am 27.1 25.2 21.4 71 3.8 ESE 33 41 18 22 1012.5 - 0.0
22/09:00am 26.7 25.5 21.6 73 3.4 ESE 30 39 16 21 1012.1 - 0.0
22/08:30am 26.5 25.1 21.9 76 3.1 ESE 32 39 17 21 1011.8 - 0.0
22/08:00am 26.5 24.9 21.5 74 3.3 SE 32 41 17 22 1011.4 1011.3 0.0
22/07:30am 26.4 24.8 21.6 75 3.2 SE 32 39 17 21 1011.2 - 0.0
22/07:00am 26.4 24.8 21.6 75 3.2 SE 32 39 17 21 1011.1 - 0.0
22/06:30am 26.6 24.5 21.0 71 3.7 ESE 33 44 18 24 1010.9 - 0.0
22/06:00am 26.5 24.8 21.4 73 3.4 SE 32 39 17 21 1010.7 - 0.0
22/05:30am 26.5 25.1 21.1 72 3.6 ESE 30 37 16 20 1010.6 - 0.0
22/05:00am 26.5 26.4 21.4 73 3.4 ESE 24 33 13 18 1010.6 1010.5 0.0
22/04:30am 26.5 25.7 21.7 75 3.2 SE 28 35 15 19 1010.8 - 0.0
22/04:00am 26.5 26.1 21.7 75 3.2 ESE 26 33 14 18 1010.9 - 0.0
22/03:30am 26.6 25.6 21.2 72 3.6 ESE 28 37 15 20 1011.3 - 0.0
22/03:00am 26.6 26.0 21.2 72 3.6 ESE 26 32 14 17 1011.6 - 0.0
22/02:30am 26.5 25.8 21.1 72 3.6 ESE 26 35 14 19 1011.8 - 0.0
22/02:00am 26.6 26.4 21.2 72 3.6 ESE 24 35 13 19 1012.0 1011.9 0.0
22/01:30am 26.6 25.8 21.7 74 3.3 SE 28 33 15 18 1012.0 - 0.0
22/01:00am 26.5 26.0 21.4 73 3.4 SE 26 33 14 18 1012.0 - 0.0
22/12:30am 26.6 25.6 21.2 72 3.6 ESE 28 39 15 21 1012.3 - 0.0
22/12:00am 26.7 25.1 21.6 73 3.4 SE 32 37 17 20 1012.3 - 0.0
 
Date/Time
WST
Temp
°C
App
Temp
°C
Dew
Point
°C
Rel
Hum
%
Delta-T
°C
Wind Press
QNH
hPa
Press
MSL
hPa
Rain since
9am
mm
Dir  Spd
km/h
Gust
km/h
Spd
kts
Gust
kts
21/11:30pm 26.6 26.0 21.2 72 3.6 ESE 26 39 14 21 1012.3 - 0.0
21/11:00pm 26.5 25.5 21.2 72 3.5 ESE 28 37 15 20 1012.3 1012.2 0.0
21/10:30pm 26.4 25.1 21.4 74 3.3 ESE 30 39 16 21 1012.1 - 0.0
21/10:00pm 26.6 25.3 21.3 72 3.5 ESE 30 37 16 20 1011.9 - 0.0
21/09:30pm 26.5 26.4 21.5 74 3.3 ESE 24 33 13 18 1011.5 - 0.0
21/09:00pm 26.6 25.6 21.2 72 3.6 ESE 28 37 15 20 1011.1 - 0.0
21/08:30pm 26.6 26.0 21.3 72 3.5 ESE 26 35 14 19 1010.7 - 0.0
21/08:00pm 26.7 26.6 21.4 72 3.5 ESE 24 32 13 17 1010.4 1010.3 0.0
21/07:30pm 26.8 26.0 21.7 73 3.4 ESE 28 33 15 18 1010.0 - 0.0
21/07:00pm 27.0 26.7 21.9 73 3.4 SE 26 33 14 18 1009.8 - 0.0
21/06:30pm 27.1 26.7 21.7 72 3.6 SE 26 35 14 19 1009.5 - 0.0
21/06:00pm 27.2 26.9 21.8 72 3.6 SE 26 32 14 17 1009.6 - 0.0
21/05:30pm 27.4 26.4 21.2 69 4.1 SE 28 37 15 20 1009.5 - 0.0
21/05:06pm 27.8 27.6 22.0 70 3.9 SE 26 32 14 17 1009.6 - 0.0
21/05:00pm 27.6 26.8 21.6 70 4.0 SE 28 33 15 18 1009.6 1009.5 0.0
21/04:48pm 27.7 26.9 21.7 70 4.0 SE 28 35 15 19 1009.6 - 0.0
21/04:30pm 27.8 26.7 21.0 66 4.5 SE 28 33 15 18 1009.7 - 0.0
21/04:00pm 28.0 27.3 21.1 66 4.6 SE 26 32 14 17 1009.8 - 0.0
21/03:30pm 28.3 27.4 20.7 63 5.0 SE 26 33 14 18 1010.0 - 0.0
21/03:00pm 28.6 28.1 20.8 62 5.2 SE 24 33 13 18 1010.2 - 0.0
21/02:30pm 28.5 27.3 20.1 60 5.5 SE 26 33 14 18 1010.5 - 0.0
21/02:00pm 28.4 27.2 20.0 60 5.5 SE 26 33 14 18 1011.0 1010.9 0.0

Other Formats:

Comma delimited format used in spreadsheet applications
http://www.bom.gov.au/fwo/IDW60801/IDW60801.96996.axf

JavaScript Object Notation format (JSON) in row-major order
http://www.bom.gov.au/fwo/IDW60801/IDW60801.96996.json